Dunlap, Kansas
Current Conditions -  °F | °C
As of 6:58 AM on Thursday 18 Dec 2014 (Local Time) from KFRI Reporting Station
Light Snow Light Snow  
Wind Chill: 21°   Ceiling: 1400
Heat Index: 27°   Visibility: 8mi
Dew Point: 27°   Wind: 5mph
Humidity: 100%   Direction: 50°NE
Pressure: 30.2"   Gusts: NA
Location:  38.6824°N, 96.5126°W
Report Text: KFRI 181258Z AUTO 05004KT 8SM -SN OVC014 M03/M03 A3020 RMK AO2 OVC V BKN SLP238 P0000
Loading
Personal Weather Stations






























Interactive Weather Map New forecast layout! Learn more

10-Day Weather Forecast

Advertisements
Track Severe Weather on mobile